createdAt,value
2023-01-06T00:02:01.734Z,0.80
2023-01-06T00:04:33.379Z,0.70
2023-01-06T00:07:05.221Z,0.60
2023-01-06T00:09:36.808Z,0.30
2023-01-06T00:12:08.631Z,0.30
2023-01-06T00:14:42.667Z,0.32
2023-01-06T00:17:14.587Z,0.40
2023-01-06T00:19:46.117Z,0.57
2023-01-06T00:22:17.936Z,0.80
2023-01-06T00:24:49.428Z,0.47
2023-01-06T00:27:21.353Z,0.57
2023-01-06T00:29:52.899Z,0.40
2023-01-06T00:32:24.777Z,0.25
2023-01-06T00:34:56.279Z,0.40
2023-01-06T00:37:28.153Z,1.05
2023-01-06T00:39:59.696Z,0.50
2023-01-06T00:42:31.554Z,0.63
2023-01-06T00:45:03.063Z,0.70
2023-01-06T00:47:34.951Z,1.20
2023-01-06T00:50:06.467Z,1.13
2023-01-06T00:52:38.344Z,0.80
2023-01-06T00:55:09.945Z,0.73
2023-01-06T00:57:42.020Z,0.90
2023-01-06T01:00:13.604Z,0.45
2023-01-06T01:02:45.525Z,0.50
2023-01-06T01:05:17.198Z,0.80
2023-01-06T01:07:48.755Z,0.60
2023-01-06T01:10:20.306Z,0.55
2023-01-06T01:12:52.162Z,0.88
2023-01-06T01:15:23.658Z,0.57
2023-01-06T01:17:55.463Z,0.68
2023-01-06T01:20:26.976Z,0.40
2023-01-06T01:22:58.747Z,0.60
2023-01-06T01:25:30.256Z,0.32
2023-01-06T01:28:02.282Z,1.30
2023-01-06T01:30:33.786Z,0.23
2023-01-06T01:33:05.648Z,0.47
2023-01-06T01:35:37.184Z,0.63
2023-01-06T01:38:08.809Z,0.40
2023-01-06T01:40:40.321Z,0.75
2023-01-06T01:43:12.377Z,0.20
2023-01-06T01:45:45.306Z,0.52
2023-01-06T01:48:16.826Z,0.40
2023-01-06T01:50:48.342Z,0.57
2023-01-06T01:53:20.309Z,0.50
2023-01-06T01:55:51.858Z,0.30
2023-01-06T01:58:23.744Z,0.52
2023-01-06T02:00:55.244Z,0.10
2023-01-06T02:03:27.250Z,0.65
2023-01-06T02:05:58.842Z,0.43
2023-01-06T02:08:30.686Z,1.75
2023-01-06T02:11:02.207Z,0.30
2023-01-06T02:13:34.068Z,0.40
2023-01-06T02:16:05.700Z,0.77
2023-01-06T02:18:37.533Z,0.20
2023-01-06T02:21:09.071Z,0.85
2023-01-06T02:23:40.996Z,0.90
2023-01-06T02:26:12.549Z,0.20
2023-01-06T02:28:44.522Z,0.40
2023-01-06T02:31:16.430Z,0.30
2023-01-06T02:33:48.064Z,0.30
2023-01-06T02:36:19.661Z,0.30
2023-01-06T02:38:51.130Z,0.30
2023-01-06T02:41:22.966Z,0.40
2023-01-06T02:43:54.508Z,0.40
2023-01-06T02:46:26.553Z,0.60
2023-01-06T02:48:58.070Z,0.47
2023-01-06T02:51:29.983Z,0.40
2023-01-06T02:54:01.549Z,0.30
2023-01-06T02:56:33.295Z,0.30
2023-01-06T02:59:04.822Z,0.55
2023-01-06T03:01:36.854Z,0.20
2023-01-06T03:04:08.466Z,0.40
2023-01-06T03:06:44.987Z,0.40
2023-01-06T03:09:16.475Z,0.50
2023-01-06T03:11:48.605Z,0.57
2023-01-06T03:14:20.111Z,0.38
2023-01-06T03:16:51.939Z,0.10
2023-01-06T03:19:23.516Z,0.43
2023-01-06T03:21:55.531Z,0.32
2023-01-06T03:24:27.430Z,0.20
2023-01-06T03:26:59.483Z,0.40
2023-01-06T03:29:31.003Z,0.60
2023-01-06T03:32:02.880Z,0.50
2023-01-06T03:34:34.897Z,0.20
2023-01-06T03:37:06.559Z,0.30
2023-01-06T03:39:38.082Z,0.22
2023-01-06T03:42:36.218Z,0.32
2023-01-06T03:45:08.227Z,0.30
2023-01-06T03:47:40.102Z,0.30
2023-01-06T03:50:11.638Z,0.10
2023-01-06T03:52:43.596Z,0.20
2023-01-06T03:55:15.122Z,0.40
2023-01-06T03:57:47.047Z,0.45
2023-01-06T04:00:18.568Z,0.30
2023-01-06T04:02:50.466Z,0.75
2023-01-06T04:05:21.980Z,0.10
2023-01-06T04:07:53.620Z,0.10
2023-01-06T04:10:25.134Z,0.32
2023-01-06T04:12:56.748Z,0.35
2023-01-06T04:15:31.388Z,0.40
2023-01-06T04:18:02.891Z,0.40
2023-01-06T04:20:34.813Z,0.77
2023-01-06T04:23:06.359Z,0.50
2023-01-06T04:25:38.218Z,0.30
2023-01-06T04:28:09.815Z,0.38
2023-01-06T04:30:41.821Z,0.30
2023-01-06T04:33:13.364Z,0.50
2023-01-06T04:35:45.480Z,0.50
2023-01-06T04:38:16.960Z,0.20
2023-01-06T04:40:48.770Z,0.32
2023-01-06T04:43:20.423Z,0.73
2023-01-06T04:45:52.157Z,0.38
2023-01-06T04:48:23.767Z,0.20
2023-01-06T04:50:55.754Z,0.40
2023-01-06T04:53:27.593Z,0.23
2023-01-06T04:55:59.141Z,0.25
2023-01-06T04:58:30.926Z,0.25
2023-01-06T05:01:02.513Z,0.38
2023-01-06T05:03:36.342Z,0.40
2023-01-06T05:06:10.777Z,0.40
2023-01-06T05:08:42.622Z,0.32
2023-01-06T05:11:14.186Z,0.35
2023-01-06T05:13:46.002Z,0.40
2023-01-06T05:16:17.586Z,0.20
2023-01-06T05:18:49.452Z,0.38
2023-01-06T05:21:20.984Z,0.68
2023-01-06T05:23:52.786Z,0.60
2023-01-06T05:26:24.307Z,0.47
2023-01-06T05:28:56.215Z,1.15
2023-01-06T05:31:27.728Z,0.77
2023-01-06T05:33:59.589Z,0.85
2023-01-06T05:36:31.119Z,0.95
2023-01-06T05:39:02.920Z,0.80
2023-01-06T05:41:34.446Z,0.35
2023-01-06T05:44:06.305Z,0.60
2023-01-06T05:46:37.810Z,0.47
2023-01-06T05:49:09.773Z,0.32
2023-01-06T05:51:41.297Z,0.80
2023-01-06T05:54:13.226Z,1.33
2023-01-06T05:56:44.768Z,0.70
2023-01-06T05:59:16.587Z,0.70
2023-01-06T06:01:48.399Z,0.90
2023-01-06T06:04:20.265Z,0.63
2023-01-06T06:06:51.818Z,0.38
2023-01-06T06:09:23.321Z,0.60
2023-01-06T06:11:55.150Z,0.38
2023-01-06T06:14:26.806Z,0.38
2023-01-06T06:16:58.691Z,0.88
2023-01-06T06:19:30.213Z,0.60
2023-01-06T06:22:02.034Z,0.50
2023-01-06T06:24:33.621Z,0.90
2023-01-06T06:27:05.588Z,0.55
2023-01-06T06:29:37.134Z,0.83
2023-01-06T06:32:09.023Z,0.52
2023-01-06T06:34:40.703Z,0.80
2023-01-06T06:37:12.676Z,0.35
2023-01-06T06:39:44.620Z,0.80
2023-01-06T06:42:16.121Z,0.40
2023-01-06T06:44:48.094Z,0.75
2023-01-06T06:47:19.666Z,0.73
2023-01-06T06:49:51.673Z,0.85
2023-01-06T06:52:23.194Z,0.70
2023-01-06T06:54:55.083Z,0.93
2023-01-06T06:57:26.598Z,0.47
2023-01-06T06:59:58.140Z,0.55
2023-01-06T07:02:30.303Z,0.65
2023-01-06T07:05:03.621Z,0.50
2023-01-06T07:07:35.427Z,0.80
2023-01-06T07:10:07.520Z,0.90
2023-01-06T07:12:39.199Z,0.55
2023-01-06T07:15:10.752Z,0.70
2023-01-06T07:17:42.258Z,1.42
2023-01-06T07:20:13.798Z,1.35
2023-01-06T07:22:45.273Z,0.77
2023-01-06T07:25:17.205Z,1.25
2023-01-06T07:27:48.797Z,1.50
2023-01-06T07:30:20.313Z,0.50
2023-01-06T07:32:51.800Z,1.90
2023-01-06T07:35:23.297Z,1.30
2023-01-06T07:37:55.840Z,1.70
2023-01-06T07:40:28.945Z,0.85
2023-01-06T07:43:00.435Z,0.93
2023-01-06T07:45:32.262Z,1.15
2023-01-06T07:48:03.802Z,1.20
2023-01-06T07:50:35.355Z,1.02
2023-01-06T07:53:06.924Z,0.90
2023-01-06T07:55:38.587Z,1.27
2023-01-06T07:58:10.222Z,1.08
2023-01-06T08:00:42.211Z,0.90
2023-01-06T08:03:13.822Z,0.87
2023-01-06T08:05:45.712Z,1.23
2023-01-06T08:08:17.276Z,1.85
2023-01-06T08:10:49.376Z,1.25
2023-01-06T08:13:20.915Z,1.65
2023-01-06T08:15:52.906Z,1.23
2023-01-06T08:18:24.468Z,1.03
2023-01-06T08:20:56.514Z,1.13
2023-01-06T08:23:28.060Z,1.60
2023-01-06T08:25:59.989Z,1.92
2023-01-06T08:28:31.643Z,1.67
2023-01-06T08:31:03.852Z,1.60
2023-01-06T08:33:35.489Z,1.80
2023-01-06T08:36:07.454Z,1.52
2023-01-06T08:38:39.079Z,1.30
2023-01-06T08:41:11.080Z,2.05
2023-01-06T08:43:44.782Z,1.93
2023-01-06T08:46:17.148Z,1.73
2023-01-06T08:48:49.192Z,1.42
2023-01-06T08:51:21.127Z,1.47
2023-01-06T08:53:53.002Z,1.48
2023-01-06T08:56:24.567Z,2.23
2023-01-06T08:58:57.732Z,1.42
2023-01-06T09:01:29.399Z,2.17
2023-01-06T09:04:01.294Z,1.80
2023-01-06T09:06:32.946Z,1.58
2023-01-06T09:09:05.151Z,1.52
2023-01-06T09:11:36.756Z,2.40
2023-01-06T09:14:08.607Z,2.10
2023-01-06T09:16:40.219Z,1.73
2023-01-06T09:19:12.045Z,2.83
2023-01-06T09:21:43.606Z,1.83
2023-01-06T09:24:15.715Z,2.33
2023-01-06T09:26:47.273Z,2.42
2023-01-06T09:29:19.170Z,1.50
2023-01-06T09:31:50.777Z,2.10
2023-01-06T09:34:22.689Z,1.92
2023-01-06T09:36:54.305Z,1.60
2023-01-06T09:39:26.183Z,2.22
2023-01-06T09:41:57.719Z,1.90
2023-01-06T09:44:30.354Z,1.40
2023-01-06T09:47:01.966Z,1.70
2023-01-06T09:49:33.839Z,1.80
2023-01-06T09:52:05.382Z,1.20
2023-01-06T09:54:37.188Z,1.42
2023-01-06T09:57:08.724Z,2.20
2023-01-06T09:59:40.542Z,1.67
2023-01-06T10:02:12.107Z,2.10
2023-01-06T10:04:44.173Z,1.67
2023-01-06T10:07:15.709Z,1.60
2023-01-06T10:09:47.384Z,1.45
2023-01-06T10:12:18.913Z,1.55
2023-01-06T10:14:50.689Z,1.98
2023-01-06T10:17:22.234Z,1.25
2023-01-06T10:19:54.082Z,1.05
2023-01-06T10:22:25.594Z,1.30
2023-01-06T10:24:57.459Z,1.48
2023-01-06T10:27:29.063Z,1.90
2023-01-06T10:30:00.952Z,1.10
2023-01-06T10:32:32.541Z,1.65
2023-01-06T10:35:04.757Z,1.98
2023-01-06T10:37:36.339Z,1.60
2023-01-06T10:40:08.202Z,1.30
2023-01-06T10:43:00.648Z,0.82
2023-01-06T10:45:32.203Z,1.53
2023-01-06T10:48:04.023Z,1.63
2023-01-06T10:50:35.662Z,1.70
2023-01-06T10:53:07.458Z,1.05
2023-01-06T10:55:39.087Z,1.20
2023-01-06T10:58:10.940Z,1.08
2023-01-06T11:00:42.496Z,1.45
2023-01-06T11:03:31.864Z,0.95
2023-01-06T11:06:04.591Z,1.20
2023-01-06T11:08:36.375Z,1.05
2023-01-06T11:11:08.104Z,1.17
2023-01-06T11:13:41.061Z,1.27
2023-01-06T11:16:12.608Z,1.02
2023-01-06T11:18:44.430Z,1.30
2023-01-06T11:21:18.723Z,1.48
2023-01-06T11:23:50.730Z,1.38
2023-01-06T11:26:23.582Z,1.10
2023-01-06T11:31:27.213Z,1.15
2023-01-06T11:33:59.092Z,1.13
2023-01-06T11:36:31.068Z,1.50
2023-01-06T11:39:02.911Z,1.17
2023-01-06T11:41:34.413Z,1.67
2023-01-06T11:44:06.187Z,1.08
2023-01-06T11:46:37.722Z,0.98
2023-01-06T11:49:09.673Z,0.85
2023-01-06T11:51:41.249Z,1.23
2023-01-06T11:54:13.092Z,1.17
2023-01-06T11:56:44.608Z,1.17
2023-01-06T11:59:16.310Z,1.25
2023-01-06T12:01:47.962Z,0.77
2023-01-06T12:04:19.937Z,1.13
2023-01-06T12:06:51.410Z,1.50
2023-01-06T12:09:23.422Z,0.85
2023-01-06T12:11:55.509Z,1.23
2023-01-06T12:14:29.465Z,1.60
2023-01-06T12:17:01.556Z,1.38
2023-01-06T12:19:33.565Z,1.67
2023-01-06T12:22:05.063Z,1.38
2023-01-06T12:24:36.951Z,1.20
2023-01-06T12:27:08.483Z,1.63
2023-01-06T12:29:40.150Z,0.90
2023-01-06T12:32:11.706Z,1.13
2023-01-06T12:34:46.093Z,1.42
2023-01-06T12:37:17.631Z,1.10
2023-01-06T12:39:49.434Z,0.50
2023-01-06T12:42:20.909Z,1.52
2023-01-06T12:44:52.707Z,0.98
2023-01-06T12:47:24.376Z,1.27
2023-01-06T12:49:56.563Z,0.98
2023-01-06T12:52:28.046Z,0.88
2023-01-06T12:55:00.796Z,0.80
2023-01-06T12:57:32.377Z,0.90
2023-01-06T13:00:03.929Z,0.70
2023-01-06T13:02:36.484Z,0.60
2023-01-06T13:05:08.029Z,0.65
2023-01-06T13:07:39.953Z,0.60
2023-01-06T13:10:11.612Z,0.60
2023-01-06T13:12:43.545Z,0.63
2023-01-06T13:15:15.026Z,0.32
2023-01-06T13:17:47.198Z,0.57
2023-01-06T13:20:18.735Z,0.75
2023-01-06T13:22:50.689Z,0.60
2023-01-06T13:25:22.168Z,0.40
2023-01-06T13:27:54.121Z,1.08
2023-01-06T13:30:25.630Z,1.17
2023-01-06T13:32:57.593Z,0.75
2023-01-06T13:35:29.088Z,1.20
2023-01-06T13:38:01.157Z,0.30
2023-01-06T13:40:32.749Z,0.53
2023-01-06T13:43:04.595Z,0.55
2023-01-06T13:45:36.221Z,0.30
2023-01-06T13:48:09.460Z,0.60
2023-01-06T13:50:41.024Z,0.88
2023-01-06T13:53:12.825Z,0.47
2023-01-06T13:55:44.322Z,0.55
2023-01-06T13:58:17.058Z,0.30
2023-01-06T14:00:48.586Z,0.30
2023-01-06T14:03:20.405Z,0.63
2023-01-06T14:05:51.918Z,0.20
2023-01-06T14:08:23.893Z,0.20
2023-01-06T14:10:55.390Z,0.55
2023-01-06T14:13:27.359Z,0.30
2023-01-06T14:15:58.933Z,0.40
2023-01-06T14:18:31.081Z,0.35
2023-01-06T14:21:02.660Z,0.30
2023-01-06T14:23:34.820Z,0.20
2023-01-06T14:26:06.352Z,0.30
2023-01-06T14:28:38.291Z,0.20
2023-01-06T14:31:09.848Z,0.30
2023-01-06T14:33:41.877Z,0.30
2023-01-06T14:36:13.431Z,0.37
2023-01-06T14:38:45.334Z,0.20
2023-01-06T14:41:16.913Z,0.30
2023-01-06T14:43:48.800Z,0.30
2023-01-06T14:46:20.448Z,0.40
2023-01-06T14:48:52.353Z,0.43
2023-01-06T14:51:24.130Z,0.30
2023-01-06T14:53:56.101Z,0.38
2023-01-06T14:56:27.659Z,0.20
2023-01-06T14:58:59.563Z,0.30
2023-01-06T15:01:31.141Z,0.22
2023-01-06T15:04:03.141Z,0.47
2023-01-06T15:06:34.926Z,0.70
2023-01-06T15:09:06.721Z,0.45
2023-01-06T15:11:38.247Z,0.50
2023-01-06T15:14:10.262Z,0.40
2023-01-06T15:16:41.791Z,0.53
2023-01-06T15:19:13.785Z,0.32
2023-01-06T15:21:47.748Z,0.40
2023-01-06T15:24:19.867Z,0.22
2023-01-06T15:26:51.436Z,0.20
2023-01-06T15:29:23.344Z,0.45
2023-01-06T15:31:54.995Z,0.40
2023-01-06T15:34:26.505Z,0.50
2023-01-06T15:36:58.027Z,0.30
2023-01-06T15:39:29.880Z,0.68
2023-01-06T15:42:02.019Z,0.40
2023-01-06T15:44:33.762Z,0.30
2023-01-06T15:47:05.261Z,0.50
2023-01-06T15:49:37.073Z,0.40
2023-01-06T15:52:08.567Z,0.90
2023-01-06T15:54:40.362Z,0.47
2023-01-06T15:57:16.612Z,0.50
2023-01-06T15:59:48.478Z,0.40
2023-01-06T16:02:20.087Z,0.50
2023-01-06T16:04:52.366Z,0.52
2023-01-06T16:07:23.877Z,0.40
2023-01-06T16:09:55.711Z,0.32
2023-01-06T16:12:27.228Z,0.55
2023-01-06T16:14:59.151Z,0.65
2023-01-06T16:17:35.073Z,0.40
2023-01-06T16:20:06.858Z,0.40
2023-01-06T16:22:38.781Z,0.47
2023-01-06T16:25:10.323Z,0.43
2023-01-06T16:27:42.161Z,0.57
2023-01-06T16:30:13.659Z,0.55
2023-01-06T16:32:47.207Z,0.80
2023-01-06T16:35:18.958Z,0.65
2023-01-06T16:37:52.807Z,0.55
2023-01-06T16:43:02.018Z,0.80
2023-01-06T16:45:34.215Z,0.50
2023-01-06T16:48:06.071Z,0.50
2023-01-06T16:50:38.233Z,0.60
2023-01-06T16:53:10.149Z,0.50
2023-01-06T16:55:41.917Z,0.70
2023-01-06T16:58:13.786Z,0.80
2023-01-06T17:00:51.125Z,0.38
2023-01-06T17:03:23.072Z,0.50
2023-01-06T17:05:54.628Z,0.63
2023-01-06T17:08:26.567Z,0.50
2023-01-06T17:10:58.075Z,0.60
2023-01-06T17:13:35.876Z,0.90
2023-01-06T17:16:07.471Z,0.55
2023-01-06T17:18:39.284Z,0.88
2023-01-06T17:21:10.734Z,0.70
2023-01-06T17:23:42.532Z,0.60
2023-01-06T17:26:14.037Z,0.85
2023-01-06T17:28:46.033Z,0.65
2023-01-06T17:31:17.646Z,0.80
2023-01-06T17:33:49.497Z,0.45
2023-01-06T17:36:21.027Z,0.60
2023-01-06T17:38:52.634Z,0.63
2023-01-06T17:41:24.191Z,0.55
2023-01-06T17:43:56.032Z,0.85
2023-01-06T17:46:27.550Z,0.75
2023-01-06T17:48:59.411Z,0.63
2023-01-06T17:51:30.937Z,0.60
2023-01-06T17:54:21.717Z,0.70
2023-01-06T17:56:53.235Z,0.73
2023-01-06T17:59:24.739Z,0.50
2023-01-06T18:01:56.327Z,0.82
2023-01-06T18:04:27.884Z,2.05
2023-01-06T18:06:59.510Z,1.17
2023-01-06T18:09:31.456Z,1.05
2023-01-06T18:12:03.523Z,1.00
2023-01-06T18:14:36.465Z,0.90
2023-01-06T18:17:07.959Z,1.20
2023-01-06T18:19:39.585Z,1.08
2023-01-06T18:22:11.141Z,0.55
2023-01-06T18:24:43.292Z,0.90
2023-01-06T18:27:14.938Z,1.00
2023-01-06T18:29:46.829Z,1.05
2023-01-06T18:32:18.319Z,0.82
2023-01-06T18:34:50.068Z,1.13
2023-01-06T18:37:21.572Z,0.90
2023-01-06T18:39:53.366Z,0.77
2023-01-06T18:42:24.904Z,0.68
2023-01-06T18:44:57.064Z,0.55
2023-01-06T18:47:28.549Z,0.70
2023-01-06T18:50:00.878Z,0.82
2023-01-06T18:52:32.350Z,1.00
2023-01-06T18:55:05.042Z,0.77
2023-01-06T18:57:36.574Z,1.10
2023-01-06T19:00:08.526Z,1.23
2023-01-06T19:02:40.022Z,1.23
2023-01-06T19:05:11.922Z,1.38
2023-01-06T19:07:43.432Z,1.35
2023-01-06T19:10:15.354Z,0.90
2023-01-06T19:12:46.877Z,1.25
2023-01-06T19:15:18.692Z,1.23
2023-01-06T19:17:51.297Z,0.90
2023-01-06T19:20:23.461Z,1.17
2023-01-06T19:22:57.792Z,1.33
2023-01-06T19:25:29.802Z,1.00
2023-01-06T19:28:01.279Z,1.00
2023-01-06T19:30:33.146Z,1.17
2023-01-06T19:33:04.615Z,0.90
2023-01-06T19:35:36.471Z,0.80
2023-01-06T19:38:07.957Z,1.60
2023-01-06T19:40:39.658Z,1.05
2023-01-06T19:43:11.157Z,1.45
2023-01-06T19:45:43.034Z,1.13
2023-01-06T19:48:14.853Z,1.65
2023-01-06T19:50:46.705Z,1.67
2023-01-06T19:53:18.228Z,1.25
2023-01-06T19:55:50.024Z,1.42
2023-01-06T19:58:21.493Z,0.93
2023-01-06T20:00:55.959Z,1.13
2023-01-06T20:03:27.829Z,1.17
2023-01-06T20:05:59.344Z,0.88
2023-01-06T20:08:31.202Z,0.80
2023-01-06T20:11:02.676Z,1.08
2023-01-06T20:13:34.539Z,1.15
2023-01-06T20:16:06.198Z,0.60
2023-01-06T20:18:38.001Z,0.93
2023-01-06T20:21:09.494Z,1.50
2023-01-06T20:23:41.359Z,1.17
2023-01-06T20:26:14.614Z,1.33
2023-01-06T20:28:46.773Z,1.27
2023-01-06T20:31:18.331Z,1.42
2023-01-06T20:33:50.116Z,1.30
2023-01-06T20:36:21.611Z,1.85
2023-01-06T20:38:53.381Z,1.30
2023-01-06T20:41:24.937Z,1.30
2023-01-06T20:43:56.648Z,1.58
2023-01-06T20:46:28.168Z,1.02
2023-01-06T20:48:59.745Z,1.25
2023-01-06T20:51:31.460Z,1.10
2023-01-06T20:54:03.360Z,0.93
2023-01-06T20:56:34.822Z,1.00
2023-01-06T20:59:06.338Z,1.17
2023-01-06T21:01:39.476Z,0.80
2023-01-06T21:04:11.171Z,0.80
2023-01-06T21:06:42.779Z,1.10
2023-01-06T21:09:17.594Z,0.88
2023-01-06T21:11:49.101Z,1.00
2023-01-06T21:14:20.713Z,0.95
2023-01-06T21:16:52.310Z,1.08
2023-01-06T21:19:24.051Z,1.13
2023-01-06T21:21:55.529Z,0.60
2023-01-06T21:24:27.434Z,1.15
2023-01-06T21:26:59.020Z,1.20
2023-01-06T21:29:30.827Z,1.27
2023-01-06T21:32:02.388Z,0.98
2023-01-06T21:34:34.172Z,0.82
2023-01-06T21:37:06.028Z,1.13
2023-01-06T21:39:37.875Z,1.20
2023-01-06T21:42:28.314Z,0.95
2023-01-06T21:45:00.160Z,1.58
2023-01-06T21:47:31.640Z,1.10
2023-01-06T21:50:03.496Z,1.08
2023-01-06T21:52:35.009Z,1.20
2023-01-06T21:55:06.566Z,1.02
2023-01-06T21:57:38.087Z,0.90
2023-01-06T22:00:13.051Z,0.85
2023-01-06T22:02:44.582Z,1.27
2023-01-06T22:05:16.461Z,1.10
2023-01-06T22:07:48.041Z,1.23
2023-01-06T22:10:19.590Z,1.55
2023-01-06T22:12:52.649Z,1.25
2023-01-06T22:15:24.112Z,1.25
2023-01-06T22:17:55.992Z,1.10
2023-01-06T22:20:27.535Z,1.10
2023-01-06T22:22:59.500Z,1.10
2023-01-06T22:25:31.059Z,1.23
2023-01-06T22:28:03.632Z,1.35
2023-01-06T22:30:35.244Z,1.42
2023-01-06T22:33:07.031Z,1.33
2023-01-06T22:35:38.524Z,1.23
2023-01-06T22:38:10.065Z,1.30
2023-01-06T22:40:41.695Z,1.40
2023-01-06T22:45:46.489Z,1.00
2023-01-06T22:48:18.007Z,0.95
2023-01-06T22:50:49.480Z,1.52
2023-01-06T22:53:21.345Z,0.98
2023-01-06T22:55:52.886Z,0.82
2023-01-06T22:58:24.829Z,1.48
2023-01-06T23:00:56.321Z,1.40
2023-01-06T23:03:28.319Z,1.05
2023-01-06T23:05:59.856Z,1.37
2023-01-06T23:08:31.710Z,1.00
2023-01-06T23:11:03.639Z,1.40
2023-01-06T23:13:35.564Z,1.80
2023-01-06T23:16:07.168Z,1.23
2023-01-06T23:18:39.002Z,1.00
2023-01-06T23:21:10.493Z,1.33
2023-01-06T23:23:42.401Z,1.35
2023-01-06T23:26:14.011Z,0.82
2023-01-06T23:28:45.909Z,1.20
2023-01-06T23:31:17.480Z,2.03
2023-01-06T23:33:49.068Z,1.05
2023-01-06T23:36:20.611Z,1.08
2023-01-06T23:38:52.477Z,1.52
2023-01-06T23:41:24.054Z,1.48
2023-01-06T23:43:55.973Z,1.50
2023-01-06T23:46:27.531Z,1.10
2023-01-06T23:48:59.535Z,1.35
2023-01-06T23:51:32.221Z,0.90
2023-01-06T23:54:04.298Z,1.10
2023-01-06T23:56:35.838Z,1.00
2023-01-06T23:59:07.651Z,1.17
